Portland, OR

6:33 AM PST on December 22, 2014 (GMT -0800)
Portland - West Hills | Change Station
CLOSE
Current Station
Personal Weather Station
Location: Portland, OR
Elevation: 820 ft
Nearby Weather Stations

Elev 820 ft 45.49 °N, 122.69 °W | Updated 22 seconds ago

Overcast
Overcast
47.1 °F
Feels Like 47 °F
N
0.0
Wind Variable Wind from North
Gusts 1.0 mph

Today
High -- | Low -- °F
--% Chance of Precip.
Yesterday
High -- | Low -- °F
Precip. -- in
7:48 AM 4:30 PM
New Moon, 0% visible
Pressure 30.30 in
Visibility 9.0 miles
Clouds Few 900 ft
Overcast 23000 ft
Windchill 47 °F
Dew Point 47 °F
Humidity 100%
Rainfall 0.02 in
Snow Depth Not available.
UV 0 out of 12
Pollen .20 out of 12
Air Quality Not available.
Flu Activity Not available.
METAR KPDX 221353Z 00000KT 9SM R10R/3500VP6000FT FEW009 OVC230 09/09 A3030 RMK AO2 SLP259 T00890089

More Conditions Fewer Conditions

Pressure 30.30 in
Visibility 9.0 miles
Clouds Few 900 ft
Overcast 23000 ft
Windchill 47 °F
Dew Point 47 °F
Humidity 100%
Rainfall 0.02 in
Snow Depth Not available.
UV 0 out of 12
Pollen .20 out of 12
Air Quality Not available.
Flu Activity Not available.
METAR KPDX 221353Z 00000KT 9SM R10R/3500VP6000FT FEW009 OVC230 09/09 A3030 RMK AO2 SLP259 T00890089

More Conditions Fewer Conditions

10-Day Weather Forecast

Almanac

Astronomy

Dec. 22, 2014 Rise Set
Actual Time
Civil Twilight
Nautical Twilight
Astronomical Twilight
Moon
Length of Visible Light
Length of Day
Tomorrow will be .
, % of the Moon is Illuminated

Today's Extremes

State Highs State Lows

Community

WunderPhotos

Upload Photos

1,779,608 photos uploaded!

WunderBlogs® & News

Nearby

Air Quality

  Air Quality AQ Index Pollutant
Not available.

Snow Depth

Station Depth Elevation

Earthquake Activity

City Distance Mag. Time & Date
Minimum magnitude displayed is 2.5.

Coastal Water Temperatures

Place Temperature

Nearby Weather Stations